PASV/SVW METAR and TAF weather

Enter ICAO airport designator
Station Type Date Time Source
PASV METAR 2019/02/17 15:11 UTC NOAA

PASV 171511Z AUTO 16009G16KT 10SM BKN038 02/M01 A2965 RMK AO2 SLP062


Station Type Date Time Source
PASV Decoded METAR 2019/02/17 15:11 UTC NOAA

Sparrevohn Airways Facilities Sector, AK, United States (PASV) 61-06N 155-34W
Feb 17, 2019 - 10:11 AM EST / 2019.02.17 1511 UTC
Wind: from the SSE (160 degrees) at 10 MPH (9 KT) gusting to 18 MPH (16 KT):0
Visibility: 10 mile(s):0
Sky conditions: mostly cloudy
Temperature: 35 F (2 C)
Windchill: 26 F (-3 C):1
Dew Point: 30 F (-1 C)
Relative Humidity: 80%
Pressure (altimeter): 29.65 in. Hg (1004 hPa)
ob: PASV 171511Z AUTO 16009G16KT 10SM BKN038 02/M01 A2965 RMK AO2 SLP062
cycle: 15

Station Type Date Time Source
PASV TAF 2012/01/12 14:57 UTC NOAA

TAF
AMD PASV 1214/1320 33010G15KT 4800 -SN BLSN SCT003 SCT110 QNH2984INS
BECMG 1221/1222 VRB06KT 9999 NSW FEW010 SCT110 QNH3000INS LIMITED METWATCH TM25/1300Z TM37/1315Z
AMD 121453


Example: see airport list